Sweet Water, Illinois
Current Conditions -  °F | °C
As of 7:35 PM on Wednesday 22 Oct 2014 (Local Time) from KPPQ Reporting Station
Clear Clear  
Wind Chill: 52°   Ceiling: Unl
Heat Index: 52°   Visibility: 10mi
Dew Point: 41°   Wind: 0mph
Humidity: 67%   Direction: NA
Pressure: 30.22"   Gusts: NA
Location:  39.7431°N, 90.5444°W
Report Text: KPPQ 230035Z AUTO 00000KT 10SM CLR 11/05 A3022 RMK AO2 T01110051
Loading
Personal Weather Stations






























Interactive Weather Map
Tropical Storm Tracking
New forecast layout! Learn more

10-Day Weather Forecast

Advertisements
Track Severe Weather on mobile